Flight Track Log - Related Links

Times and Time Zones

All times are in EDT time to prevent confusion due to time zone crossing. See the KAP550 flight status page for this flight to view local times or setup timezone preferences in your user account.

Time Position Orientation Groundspeed Altitude Reporting Facility
EDT Latitude Longitude Course Direction KTS MPH feet Rate Location/Type
Wed 10:29:17 AM 42.8825 -73.9333 341° North 142 163 5,500  Level Boston Center
Wed 10:30:18 AM 42.9219 -73.9514 341° North 148 170 5,800 347 Climbing Boston Center
Wed 10:31:18 AM 42.9611 -73.9694 341° North 154 177 6,200 347 Climbing Boston Center
Wed 10:32:19 AM 43.0025 -73.9872 343° North 154 177 6,500 149 Climbing Boston Center
Wed 10:33:19 AM 43.0483 -74.0056 344° North 164 189 6,500  Level Boston Center
Wed 10:34:20 AM 43.0939 -74.0208 346° North 171 197 6,500  Level Boston Center
Wed 10:35:27 AM 43.1353 -74.0419 340° North 172 198 6,500  Level Boston Center
Wed 10:36:27 AM 43.1869 -74.0661 341° North 172 198 6,500 200 Level Boston Center
Wed 10:37:27 AM 43.2242 -74.0842 341° North 162 186 6,900 600 Climbing Boston Center
Wed 10:38:27 AM 43.2678 -74.1053 341° North 157 181 7,700 700 Climbing Boston Center
Wed 10:39:27 AM 43.3050 -74.1206 343° North 147 169 8,300 400 Climbing Boston Center
Wed 10:40:27 AM 43.3528 -74.1392 344° North 152 175 8,500 100 Climbing Boston Center
Wed 10:41:27 AM 43.3919 -74.1544 344° North 157 181 8,500  Level Boston Center
Wed 10:42:27 AM 43.4375 -74.1728 344° North 163 188 8,500  Level Boston Center
Wed 10:43:27 AM 43.4811 -74.1914 343° North 163 188 8,500  Level Boston Center
Wed 10:44:27 AM 43.5247 -74.2069 345° North 163 188 8,500  Level Boston Center
Wed 10:45:27 AM 43.5661 -74.2281 340° North 163 188 8,500  Level Boston Center
Wed 10:46:27 AM 43.6094 -74.2467 343° North 163 188 8,500  Level Boston Center
Wed 10:47:27 AM 43.6489 -74.2650 341° North 158 182 8,500  Level Boston Center
Wed 10:48:27 AM 43.6922 -74.2806 345° North 158 182 8,500  Level Boston Center
Wed 10:49:27 AM 43.7378 -74.3050 339° North 163 188 8,500  Level Boston Center
Wed 10:50:27 AM 43.7772 -74.3206 344° North 163 188 8,500  Level Boston Center
Wed 10:51:27 AM 43.8164 -74.3392 341° North 163 188 8,500  Level Boston Center
Wed 10:52:27 AM 43.8578 -74.3550 345° North 158 182 8,500  Level Boston Center
Wed 10:53:27 AM 43.9075 -74.3767 343° North 158 182 8,500  Level Boston Center
Wed 10:54:27 AM 43.9447 -74.3922 343° North 158 182 8,500  Level Boston Center
Wed 10:55:27 AM 43.9881 -74.4139 340° North 153 176 8,500  Level Boston Center
Wed 10:56:27 AM 44.0294 -74.4297 345° North 153 176 8,500  Level Boston Center
Wed 10:57:27 AM 44.0689 -74.4483 341° North 148 170 8,500  Level Boston Center
Wed 10:58:27 AM 44.1122 -74.4700 340° North 148 170 8,500 -200 Level Boston Center
Wed 10:59:27 AM 44.1536 -74.4858 345° North 148 170 8,100 -500 Descending Boston Center
Wed 11:00:27 AM 44.2011 -74.5047 344° North 160 184 7,500 -600 Descending Boston Center
Wed 11:01:27 AM 44.2486 -74.5297 339° North 166 191 6,900 -600 Descending Boston Center
Wed 11:02:27 AM 44.2961 -74.5517 342° North 166 191 6,300 -550 Descending Boston Center
Wed 11:03:27 AM 44.3417 -74.5736 341° North 166 191 5,800 -550 Descending Boston Center
Wed 11:04:27 AM 44.3869 -74.5928 343° North 166 191 5,200 -550 Descending Boston Center
Wed 11:05:27 AM 44.4325 -74.6117 344° North 166 191 4,700 -400 Descending Boston Center
Wed 11:06:27 AM 44.4656 -74.6275 341° North 166 191 4,400 -400 Descending Boston Center
Wed 11:07:27 AM 44.5089 -74.6494 340° North 166 191 3,900 1,050 Descending Boston Center
Wed 11:08:27 AM 44.5522 -74.6744 338° Northwest 166 191 6,500 2,600 Climbing Boston Center

Login

Don't have an account? Register now (free) for customized features, flight alerts, and more!